Airfield :







YOU CAN JOIN US ON...

 
LOGIN :

Register | Disclaimer

   EN    FR    IT 

 









Legend :    VFR   Marginal VFR   IFR   Intensive IFR   Very Intensive IFR
Visi :
Ceiling :
>= 8 km
>= 3000ft
5 to 8 km
1000 to 3000 ft
1500m to 5 km
500 to 1000 ft
800 to 1500m
200 to 500 ft
< 800m
< 200 ft
Symbols :   Thunderstorms  Fog  Heavy snow  Heavy precipitations  Wind > 20 kt







- Airport Elevation : 192 ft
- IATA code : BGR


KBGR - Bangor International

CURRENT METAR :
  • 252253Z 29005KT 10SM CLR 01/M19 A2999 RMK AO2 SLP158 T00061194

EXPIRED METARs :
  • 252153Z 28010G18KT 10SM CLR 02/M19 A2998 RMK AO2 SLP152 T00171189
  • 252053Z 29007G18KT 10SM CLR 02/M18 A2997 RMK AO2 SLP150 T00221178 56007

TAF KBGR
Valid from the 26 at 00:00 until the 27 at 00:00 UTC


252327Z 2600/2624 28008KT P6SM SCT200
FM261500 32010KT P6SM SCT200
KZBW FIR / North America



MET'MAP, your aeronautical weather chart ! - Copyright ORBIFLY December 2007 - Disclaimer

ORBIFLY MET'MAP TEAM :

Programming & Development : Alexandra Zaïnal
Concept & Development : Baudouin d'Aumeries
Co-Development & Prog : Marc-Olivier Méhu
Technical & hardware support : Manuel Goepfert

Contact : metmap@orbifly.com




SOURCES & CREDITS :

   NOAA